sensor_id;sensor_type;location;lat;lon;timestamp;pressure;altitude;pressure_sealevel;temperature;humidity
60719;BME280;46567;51.660;5.824;2023-06-22T00:02:24;129790.0;;;190.6;70.5
60719;BME280;46567;51.660;5.824;2023-06-22T00:07:24;129800.0;;;190.6;71.0
60719;BME280;46567;51.660;5.824;2023-06-22T00:12:24;129820.0;;;190.6;71.5
60719;BME280;46567;51.660;5.824;2023-06-22T00:17:24;129840.0;;;190.6;73.0
60719;BME280;46567;51.660;5.824;2023-06-22T00:22:24;129840.0;;;190.6;73.5
60719;BME280;46567;51.660;5.824;2023-06-22T00:27:24;129840.0;;;190.6;73.5
60719;BME280;46567;51.660;5.824;2023-06-22T00:32:24;129850.0;;;190.6;73.5
60719;BME280;46567;51.660;5.824;2023-06-22T00:37:24;129840.0;;;190.6;73.5
60719;BME280;46567;51.660;5.824;2023-06-22T00:42:24;129860.0;;;190.6;74.5
60719;BME280;46567;51.660;5.824;2023-06-22T00:47:24;129860.0;;;190.6;74.0
60719;BME280;46567;51.660;5.824;2023-06-22T00:52:24;129840.0;;;190.6;74.5
60719;BME280;46567;51.660;5.824;2023-06-22T00:57:25;129860.0;;;190.6;75.0
60719;BME280;46567;51.660;5.824;2023-06-22T01:02:24;129860.0;;;190.6;75.0
60719;BME280;46567;51.660;5.824;2023-06-22T01:07:35;129860.0;;;190.6;75.5
60719;BME280;46567;51.660;5.824;2023-06-22T01:12:25;129870.0;;;190.6;76.0
60719;BME280;46567;51.660;5.824;2023-06-22T01:17:25;129890.0;;;190.6;76.0
60719;BME280;46567;51.660;5.824;2023-06-22T01:22:28;129900.0;;;190.6;76.5
60719;BME280;46567;51.660;5.824;2023-06-22T01:28:05;129890.0;;;190.6;77.0
60719;BME280;46567;51.660;5.824;2023-06-22T01:32:24;129880.0;;;190.6;77.0
60719;BME280;46567;51.660;5.824;2023-06-22T01:37:24;129900.0;;;190.6;77.0
60719;BME280;46567;51.660;5.824;2023-06-22T01:42:25;129890.0;;;190.6;77.0
60719;BME280;46567;51.660;5.824;2023-06-22T01:47:25;129910.0;;;190.6;77.5
60719;BME280;46567;51.660;5.824;2023-06-22T01:52:24;129920.0;;;190.6;78.0
60719;BME280;46567;51.660;5.824;2023-06-22T01:57:24;129910.0;;;190.6;78.5
60719;BME280;46567;51.660;5.824;2023-06-22T02:02:28;129910.0;;;190.6;78.5
60719;BME280;46567;51.660;5.824;2023-06-22T02:07:28;129920.0;;;190.6;79.0
60719;BME280;46567;51.660;5.824;2023-06-22T02:12:26;129930.0;;;190.6;79.0
60719;BME280;46567;51.660;5.824;2023-06-22T02:17:26;129930.0;;;190.6;79.5
60719;BME280;46567;51.660;5.824;2023-06-22T02:22:24;129940.0;;;190.6;79.5
60719;BME280;46567;51.660;5.824;2023-06-22T02:27:24;129930.0;;;190.6;79.5
60719;BME280;46567;51.660;5.824;2023-06-22T02:32:24;129920.0;;;190.6;80.0
60719;BME280;46567;51.660;5.824;2023-06-22T02:37:24;129930.0;;;190.6;80.0
60719;BME280;46567;51.660;5.824;2023-06-22T02:42:24;129920.0;;;190.6;80.5
60719;BME280;46567;51.660;5.824;2023-06-22T02:47:25;129930.0;;;190.6;80.5
60719;BME280;46567;51.660;5.824;2023-06-22T02:52:24;129930.0;;;190.6;81.0
60719;BME280;46567;51.660;5.824;2023-06-22T02:57:24;129940.0;;;190.6;81.0
60719;BME280;46567;51.660;5.824;2023-06-22T03:02:24;129950.0;;;190.6;81.5
60719;BME280;46567;51.660;5.824;2023-06-22T03:07:24;129960.0;;;190.6;81.5
60719;BME280;46567;51.660;5.824;2023-06-22T03:12:24;129970.0;;;190.6;82.0
60719;BME280;46567;51.660;5.824;2023-06-22T03:17:24;129950.0;;;190.6;82.5
60719;BME280;46567;51.660;5.824;2023-06-22T03:22:24;129940.0;;;190.6;82.5
60719;BME280;46567;51.660;5.824;2023-06-22T03:27:24;129970.0;;;190.6;82.5
60719;BME280;46567;51.660;5.824;2023-06-22T03:32:24;129980.0;;;190.6;82.5
60719;BME280;46567;51.660;5.824;2023-06-22T03:37:24;129980.0;;;190.6;83.0
60719;BME280;46567;51.660;5.824;2023-06-22T03:42:25;129980.0;;;190.6;83.5
60719;BME280;46567;51.660;5.824;2023-06-22T03:47:24;129980.0;;;190.6;83.5
60719;BME280;46567;51.660;5.824;2023-06-22T03:52:24;129970.0;;;190.6;83.0
60719;BME280;46567;51.660;5.824;2023-06-22T03:57:24;129990.0;;;190.6;83.5
60719;BME280;46567;51.660;5.824;2023-06-22T04:02:25;130000.0;;;190.6;83.5
60719;BME280;46567;51.660;5.824;2023-06-22T04:07:24;129990.0;;;190.6;84.0
60719;BME280;46567;51.660;5.824;2023-06-22T04:12:24;130010.0;;;190.6;84.0
60719;BME280;46567;51.660;5.824;2023-06-22T04:17:24;130010.0;;;190.6;85.5
60719;BME280;46567;51.660;5.824;2023-06-22T04:22:24;130000.0;;;190.6;86.0
60719;BME280;46567;51.660;5.824;2023-06-22T04:27:24;129980.0;;;190.6;86.5
60719;BME280;46567;51.660;5.824;2023-06-22T04:32:24;129980.0;;;190.6;87.0
60719;BME280;46567;51.660;5.824;2023-06-22T04:37:24;129940.0;;;190.6;87.0
60719;BME280;46567;51.660;5.824;2023-06-22T04:42:25;129920.0;;;190.6;87.5
60719;BME280;46567;51.660;5.824;2023-06-22T04:47:24;129900.0;;;190.6;88.5
60719;BME280;46567;51.660;5.824;2023-06-22T04:52:24;129850.0;;;190.6;88.0
60719;BME280;46567;51.660;5.824;2023-06-22T04:57:24;129790.0;;;190.6;87.5
60719;BME280;46567;51.660;5.824;2023-06-22T05:02:24;129760.0;;;190.6;87.5
60719;BME280;46567;51.660;5.824;2023-06-22T05:07:24;129730.0;;;190.6;87.0
60719;BME280;46567;51.660;5.824;2023-06-22T05:12:24;129700.0;;;190.6;87.0
60719;BME280;46567;51.660;5.824;2023-06-22T05:17:25;129690.0;;;190.6;87.5
60719;BME280;46567;51.660;5.824;2023-06-22T05:22:24;129660.0;;;190.6;87.5
60719;BME280;46567;51.660;5.824;2023-06-22T05:27:24;129640.0;;;190.6;87.5
60719;BME280;46567;51.660;5.824;2023-06-22T05:32:24;129610.0;;;190.6;87.0
60719;BME280;46567;51.660;5.824;2023-06-22T05:37:24;129570.0;;;190.6;87.0
60719;BME280;46567;51.660;5.824;2023-06-22T05:42:24;129530.0;;;190.6;86.5
60719;BME280;46567;51.660;5.824;2023-06-22T05:47:24;129480.0;;;190.6;85.5
60719;BME280;46567;51.660;5.824;2023-06-22T05:52:24;129470.0;;;190.6;86.0
60719;BME280;46567;51.660;5.824;2023-06-22T05:57:24;129470.0;;;190.6;86.0
60719;BME280;46567;51.660;5.824;2023-06-22T06:02:24;129470.0;;;190.6;86.0
60719;BME280;46567;51.660;5.824;2023-06-22T06:07:24;129450.0;;;190.6;86.0
60719;BME280;46567;51.660;5.824;2023-06-22T06:12:24;129420.0;;;190.6;85.0
60719;BME280;46567;51.660;5.824;2023-06-22T06:17:24;129380.0;;;190.6;85.0
60719;BME280;46567;51.660;5.824;2023-06-22T06:22:24;129380.0;;;190.6;84.0
60719;BME280;46567;51.660;5.824;2023-06-22T06:27:24;129370.0;;;190.6;84.0
60719;BME280;46567;51.660;5.824;2023-06-22T06:32:24;129350.0;;;190.6;84.0
60719;BME280;46567;51.660;5.824;2023-06-22T06:37:24;129340.0;;;190.6;83.5
60719;BME280;46567;51.660;5.824;2023-06-22T06:42:24;129320.0;;;190.6;83.5
60719;BME280;46567;51.660;5.824;2023-06-22T06:47:24;129280.0;;;190.6;83.5
60719;BME280;46567;51.660;5.824;2023-06-22T06:52:24;129260.0;;;190.6;82.5
60719;BME280;46567;51.660;5.824;2023-06-22T06:57:24;129270.0;;;190.6;82.5
60719;BME280;46567;51.660;5.824;2023-06-22T07:02:25;129270.0;;;190.6;83.0
60719;BME280;46567;51.660;5.824;2023-06-22T07:07:24;129270.0;;;190.6;84.0
60719;BME280;46567;51.660;5.824;2023-06-22T07:12:24;129270.0;;;190.6;84.0
60719;BME280;46567;51.660;5.824;2023-06-22T07:17:24;129250.0;;;190.6;83.5
60719;BME280;46567;51.660;5.824;2023-06-22T07:22:24;129210.0;;;190.6;83.0
60719;BME280;46567;51.660;5.824;2023-06-22T07:27:24;129230.0;;;190.6;83.0
60719;BME280;46567;51.660;5.824;2023-06-22T07:32:24;129240.0;;;190.6;83.5
60719;BME280;46567;51.660;5.824;2023-06-22T07:37:24;129230.0;;;190.6;83.5
60719;BME280;46567;51.660;5.824;2023-06-22T07:42:24;129210.0;;;190.6;83.5
60719;BME280;46567;51.660;5.824;2023-06-22T07:47:24;129180.0;;;190.6;84.0
60719;BME280;46567;51.660;5.824;2023-06-22T07:52:24;129150.0;;;190.6;83.0
60719;BME280;46567;51.660;5.824;2023-06-22T07:57:25;129090.0;;;190.6;82.5
60719;BME280;46567;51.660;5.824;2023-06-22T08:02:25;129040.0;;;190.6;82.0
60719;BME280;46567;51.660;5.824;2023-06-22T08:07:24;128970.0;;;190.6;80.5
60719;BME280;46567;51.660;5.824;2023-06-22T08:12:24;128910.0;;;190.6;81.0
60719;BME280;46567;51.660;5.824;2023-06-22T08:17:24;128850.0;;;190.6;78.0
60719;BME280;46567;51.660;5.824;2023-06-22T08:22:25;128820.0;;;190.6;78.0
60719;BME280;46567;51.660;5.824;2023-06-22T08:27:24;128780.0;;;190.6;78.0
60719;BME280;46567;51.660;5.824;2023-06-22T08:32:24;128750.0;;;190.6;77.0
60719;BME280;46567;51.660;5.824;2023-06-22T08:37:24;128730.0;;;190.6;76.0
60719;BME280;46567;51.660;5.824;2023-06-22T08:42:24;128720.0;;;190.6;74.5
60719;BME280;46567;51.660;5.824;2023-06-22T08:47:25;128690.0;;;190.6;74.0
60719;BME280;46567;51.660;5.824;2023-06-22T08:52:24;128660.0;;;190.6;73.5
60719;BME280;46567;51.660;5.824;2023-06-22T08:57:25;128630.0;;;190.6;73.5
60719;BME280;46567;51.660;5.824;2023-06-22T09:02:24;128600.0;;;190.6;72.0
60719;BME280;46567;51.660;5.824;2023-06-22T09:07:24;128570.0;;;190.6;72.0
60719;BME280;46567;51.660;5.824;2023-06-22T09:12:24;128570.0;;;190.6;71.5
60719;BME280;46567;51.660;5.824;2023-06-22T09:17:24;128570.0;;;190.6;71.5
60719;BME280;46567;51.660;5.824;2023-06-22T09:22:24;128560.0;;;190.6;71.0
60719;BME280;46567;51.660;5.824;2023-06-22T09:27:24;128570.0;;;190.6;71.5
60719;BME280;46567;51.660;5.824;2023-06-22T09:32:25;128570.0;;;190.6;71.5
60719;BME280;46567;51.660;5.824;2023-06-22T09:37:24;128600.0;;;190.6;71.0
60719;BME280;46567;51.660;5.824;2023-06-22T09:42:24;128610.0;;;190.6;71.0
60719;BME280;46567;51.660;5.824;2023-06-22T09:47:25;128640.0;;;190.6;70.5
60719;BME280;46567;51.660;5.824;2023-06-22T09:52:25;128650.0;;;190.6;68.5
60719;BME280;46567;51.660;5.824;2023-06-22T09:57:24;128670.0;;;190.6;69.0
60719;BME280;46567;51.660;5.824;2023-06-22T10:02:24;128660.0;;;190.6;68.0
60719;BME280;46567;51.660;5.824;2023-06-22T10:07:24;128690.0;;;190.6;69.5
60719;BME280;46567;51.660;5.824;2023-06-22T10:12:25;128710.0;;;190.6;70.0
60719;BME280;46567;51.660;5.824;2023-06-22T10:17:24;128710.0;;;190.6;70.5
60719;BME280;46567;51.660;5.824;2023-06-22T10:22:24;128690.0;;;190.6;71.0
60719;BME280;46567;51.660;5.824;2023-06-22T10:27:24;128680.0;;;190.6;71.5
60719;BME280;46567;51.660;5.824;2023-06-22T10:32:24;128670.0;;;190.6;72.5
60719;BME280;46567;51.660;5.824;2023-06-22T10:37:24;128680.0;;;190.6;72.5
60719;BME280;46567;51.660;5.824;2023-06-22T10:42:24;128680.0;;;190.6;72.5
60719;BME280;46567;51.660;5.824;2023-06-22T10:47:24;128690.0;;;190.6;73.0
60719;BME280;46567;51.660;5.824;2023-06-22T10:52:25;128680.0;;;190.6;72.5
60719;BME280;46567;51.660;5.824;2023-06-22T10:57:24;128680.0;;;190.6;70.5
60719;BME280;46567;51.660;5.824;2023-06-22T11:02:25;128690.0;;;190.6;70.5
60719;BME280;46567;51.660;5.824;2023-06-22T11:07:24;128740.0;;;190.6;71.0
60719;BME280;46567;51.660;5.824;2023-06-22T11:12:24;128750.0;;;190.6;73.0
60719;BME280;46567;51.660;5.824;2023-06-22T11:17:24;128740.0;;;190.6;75.0
60719;BME280;46567;51.660;5.824;2023-06-22T11:22:24;128750.0;;;190.6;77.0
60719;BME280;46567;51.660;5.824;2023-06-22T11:27:24;128810.0;;;190.6;79.5
60719;BME280;46567;51.660;5.824;2023-06-22T11:32:24;128860.0;;;190.6;81.0
60719;BME280;46567;51.660;5.824;2023-06-22T11:37:24;128870.0;;;190.6;83.0
60719;BME280;46567;51.660;5.824;2023-06-22T11:42:24;128900.0;;;190.6;83.0
60719;BME280;46567;51.660;5.824;2023-06-22T11:47:24;128980.0;;;190.6;84.5
60719;BME280;46567;51.660;5.824;2023-06-22T11:52:24;129110.0;;;190.6;88.5
60719;BME280;46567;51.660;5.824;2023-06-22T11:57:24;129170.0;;;190.6;90.0
60719;BME280;46567;51.660;5.824;2023-06-22T12:02:24;129190.0;;;190.6;91.0
60719;BME280;46567;51.660;5.824;2023-06-22T12:07:24;129200.0;;;190.6;92.5
60719;BME280;46567;51.660;5.824;2023-06-22T12:12:24;129190.0;;;190.6;94.0
60719;BME280;46567;51.660;5.824;2023-06-22T12:17:24;129180.0;;;190.6;96.0
60719;BME280;46567;51.660;5.824;2023-06-22T12:22:24;129230.0;;;190.6;98.0
60719;BME280;46567;51.660;5.824;2023-06-22T12:27:25;129260.0;;;190.6;100.0
60719;BME280;46567;51.660;5.824;2023-06-22T12:32:24;129250.0;;;190.6;100.0
60719;BME280;46567;51.660;5.824;2023-06-22T12:37:24;129240.0;;;190.6;100.0
60719;BME280;46567;51.660;5.824;2023-06-22T12:42:24;129220.0;;;190.6;100.0
60719;BME280;46567;51.660;5.824;2023-06-22T12:47:24;129210.0;;;190.6;100.0
60719;BME280;46567;51.660;5.824;2023-06-22T12:52:25;129200.0;;;190.6;100.0
60719;BME280;46567;51.660;5.824;2023-06-22T12:57:24;129180.0;;;190.6;100.0
60719;BME280;46567;51.660;5.824;2023-06-22T13:02:24;129170.0;;;190.6;100.0
60719;BME280;46567;51.660;5.824;2023-06-22T13:07:24;129160.0;;;190.6;100.0
60719;BME280;46567;51.660;5.824;2023-06-22T13:12:24;129150.0;;;190.6;100.0
60719;BME280;46567;51.660;5.824;2023-06-22T13:17:25;129120.0;;;190.6;100.0
60719;BME280;46567;51.660;5.824;2023-06-22T13:22:28;129110.0;;;190.6;100.0
60719;BME280;46567;51.660;5.824;2023-06-22T13:27:25;129110.0;;;190.6;100.0
60719;BME280;46567;51.660;5.824;2023-06-22T13:32:24;129100.0;;;190.6;100.0
60719;BME280;46567;51.660;5.824;2023-06-22T13:37:25;129070.0;;;190.6;100.0
60719;BME280;46567;51.660;5.824;2023-06-22T13:42:25;129080.0;;;190.6;100.0
60719;BME280;46567;51.660;5.824;2023-06-22T13:47:24;129090.0;;;190.6;100.0
60719;BME280;46567;51.660;5.824;2023-06-22T13:52:25;129070.0;;;190.6;100.0
60719;BME280;46567;51.660;5.824;2023-06-22T13:57:24;129100.0;;;190.6;100.0
60719;BME280;46567;51.660;5.824;2023-06-22T14:02:25;129100.0;;;190.6;100.0
60719;BME280;46567;51.660;5.824;2023-06-22T14:07:24;129110.0;;;190.6;100.0
60719;BME280;46567;51.660;5.824;2023-06-22T14:12:24;129110.0;;;190.6;100.0
60719;BME280;46567;51.660;5.824;2023-06-22T14:17:25;129120.0;;;190.6;100.0
60719;BME280;46567;51.660;5.824;2023-06-22T14:22:24;129160.0;;;190.6;100.0
60719;BME280;46567;51.660;5.824;2023-06-22T14:27:25;129200.0;;;190.6;100.0
60719;BME280;46567;51.660;5.824;2023-06-22T14:32:24;129190.0;;;190.6;100.0
60719;BME280;46567;51.660;5.824;2023-06-22T14:37:24;129190.0;;;190.6;100.0
60719;BME280;46567;51.660;5.824;2023-06-22T14:42:25;129280.0;;;190.6;100.0
60719;BME280;46567;51.660;5.824;2023-06-22T14:47:25;129270.0;;;190.6;100.0
60719;BME280;46567;51.660;5.824;2023-06-22T14:52:24;129240.0;;;190.6;100.0
60719;BME280;46567;51.660;5.824;2023-06-22T14:57:25;129240.0;;;190.6;100.0
60719;BME280;46567;51.660;5.824;2023-06-22T15:07:24;129270.0;;;190.6;100.0
60719;BME280;46567;51.660;5.824;2023-06-22T15:12:24;129260.0;;;190.6;100.0
60719;BME280;46567;51.660;5.824;2023-06-22T15:17:25;129260.0;;;190.6;100.0
60719;BME280;46567;51.660;5.824;2023-06-22T15:22:24;129280.0;;;190.6;100.0
60719;BME280;46567;51.660;5.824;2023-06-22T15:27:25;129290.0;;;190.6;100.0
60719;BME280;46567;51.660;5.824;2023-06-22T15:32:25;129300.0;;;190.6;100.0
60719;BME280;46567;51.660;5.824;2023-06-22T15:42:24;129290.0;;;190.6;100.0
60719;BME280;46567;51.660;5.824;2023-06-22T15:47:25;129300.0;;;190.6;100.0
60719;BME280;46567;51.660;5.824;2023-06-22T15:52:25;129310.0;;;190.6;100.0
60719;BME280;46567;51.660;5.824;2023-06-22T15:57:25;129310.0;;;190.6;100.0
60719;BME280;46567;51.660;5.824;2023-06-22T16:02:24;129310.0;;;190.6;100.0
60719;BME280;46567;51.660;5.824;2023-06-22T16:07:24;129300.0;;;190.6;100.0
60719;BME280;46567;51.660;5.824;2023-06-22T16:12:24;129280.0;;;190.6;100.0
60719;BME280;46567;51.660;5.824;2023-06-22T16:17:25;129300.0;;;190.6;100.0
60719;BME280;46567;51.660;5.824;2023-06-22T16:22:25;129330.0;;;190.6;100.0
60719;BME280;46567;51.660;5.824;2023-06-22T16:27:25;129340.0;;;190.6;100.0
60719;BME280;46567;51.660;5.824;2023-06-22T16:32:25;129350.0;;;190.6;100.0
60719;BME280;46567;51.660;5.824;2023-06-22T16:37:25;129350.0;;;190.6;100.0
60719;BME280;46567;51.660;5.824;2023-06-22T16:42:24;129380.0;;;190.6;100.0
60719;BME280;46567;51.660;5.824;2023-06-22T16:47:24;129390.0;;;190.6;100.0
60719;BME280;46567;51.660;5.824;2023-06-22T16:52:25;129400.0;;;190.6;100.0
60719;BME280;46567;51.660;5.824;2023-06-22T16:57:25;129410.0;;;190.6;100.0
60719;BME280;46567;51.660;5.824;2023-06-22T17:02:25;129410.0;;;190.6;100.0
60719;BME280;46567;51.660;5.824;2023-06-22T17:07:26;129410.0;;;190.6;100.0
60719;BME280;46567;51.660;5.824;2023-06-22T17:12:25;129410.0;;;190.6;100.0
60719;BME280;46567;51.660;5.824;2023-06-22T17:17:25;129400.0;;;190.6;100.0
60719;BME280;46567;51.660;5.824;2023-06-22T17:22:24;129400.0;;;190.6;100.0
60719;BME280;46567;51.660;5.824;2023-06-22T17:27:26;129390.0;;;190.6;100.0
60719;BME280;46567;51.660;5.824;2023-06-22T17:32:30;129380.0;;;190.6;100.0
60719;BME280;46567;51.660;5.824;2023-06-22T17:37:25;129370.0;;;190.6;100.0
60719;BME280;46567;51.660;5.824;2023-06-22T17:42:25;129360.0;;;190.6;100.0
60719;BME280;46567;51.660;5.824;2023-06-22T17:47:25;129350.0;;;190.6;100.0
60719;BME280;46567;51.660;5.824;2023-06-22T17:52:26;129340.0;;;190.6;100.0
60719;BME280;46567;51.660;5.824;2023-06-22T17:57:25;129330.0;;;190.6;100.0
60719;BME280;46567;51.660;5.824;2023-06-22T18:02:25;129340.0;;;190.6;100.0
60719;BME280;46567;51.660;5.824;2023-06-22T18:07:26;129340.0;;;190.6;100.0
60719;BME280;46567;51.660;5.824;2023-06-22T18:12:25;129340.0;;;190.6;100.0
60719;BME280;46567;51.660;5.824;2023-06-22T18:17:25;129330.0;;;190.6;100.0
60719;BME280;46567;51.660;5.824;2023-06-22T18:22:25;129330.0;;;190.6;100.0
60719;BME280;46567;51.660;5.824;2023-06-22T18:27:25;129340.0;;;190.6;100.0
60719;BME280;46567;51.660;5.824;2023-06-22T18:32:25;129320.0;;;190.6;100.0
60719;BME280;46567;51.660;5.824;2023-06-22T18:37:25;129310.0;;;190.6;100.0
60719;BME280;46567;51.660;5.824;2023-06-22T18:42:25;129320.0;;;190.6;100.0
60719;BME280;46567;51.660;5.824;2023-06-22T18:47:27;129330.0;;;190.6;100.0
60719;BME280;46567;51.660;5.824;2023-06-22T18:52:25;129320.0;;;190.6;100.0
60719;BME280;46567;51.660;5.824;2023-06-22T18:57:26;129320.0;;;190.6;100.0
60719;BME280;46567;51.660;5.824;2023-06-22T19:02:39;129330.0;;;190.6;100.0
60719;BME280;46567;51.660;5.824;2023-06-22T19:07:56;129350.0;;;190.6;100.0
60719;BME280;46567;51.660;5.824;2023-06-22T19:12:25;129370.0;;;190.6;100.0
60719;BME280;46567;51.660;5.824;2023-06-22T19:17:25;129390.0;;;190.6;100.0
60719;BME280;46567;51.660;5.824;2023-06-22T19:22:42;129390.0;;;190.6;100.0
60719;BME280;46567;51.660;5.824;2023-06-22T19:27:29;129420.0;;;190.6;100.0
60719;BME280;46567;51.660;5.824;2023-06-22T19:32:25;129430.0;;;190.6;100.0
60719;BME280;46567;51.660;5.824;2023-06-22T19:37:27;129450.0;;;190.6;100.0
60719;BME280;46567;51.660;5.824;2023-06-22T19:42:25;129470.0;;;190.6;100.0
60719;BME280;46567;51.660;5.824;2023-06-22T19:47:25;129480.0;;;190.6;100.0
60719;BME280;46567;51.660;5.824;2023-06-22T19:52:25;129500.0;;;190.6;100.0
60719;BME280;46567;51.660;5.824;2023-06-22T19:57:25;129500.0;;;190.6;100.0
60719;BME280;46567;51.660;5.824;2023-06-22T20:02:25;129530.0;;;190.6;100.0
60719;BME280;46567;51.660;5.824;2023-06-22T20:07:34;129570.0;;;190.6;100.0
60719;BME280;46567;51.660;5.824;2023-06-22T20:12:25;129590.0;;;190.6;100.0
60719;BME280;46567;51.660;5.824;2023-06-22T20:17:25;129610.0;;;190.6;100.0
60719;BME280;46567;51.660;5.824;2023-06-22T20:22:25;129620.0;;;190.6;100.0
60719;BME280;46567;51.660;5.824;2023-06-22T20:27:25;129640.0;;;190.6;100.0
60719;BME280;46567;51.660;5.824;2023-06-22T20:32:25;129670.0;;;190.6;100.0
60719;BME280;46567;51.660;5.824;2023-06-22T20:37:25;129700.0;;;190.6;100.0
60719;BME280;46567;51.660;5.824;2023-06-22T20:42:25;129730.0;;;190.6;100.0
60719;BME280;46567;51.660;5.824;2023-06-22T20:47:25;129750.0;;;190.6;100.0
60719;BME280;46567;51.660;5.824;2023-06-22T20:52:25;129770.0;;;190.6;100.0
60719;BME280;46567;51.660;5.824;2023-06-22T20:57:25;129800.0;;;190.6;100.0
60719;BME280;46567;51.660;5.824;2023-06-22T21:02:25;129810.0;;;190.6;100.0
60719;BME280;46567;51.660;5.824;2023-06-22T21:07:25;129850.0;;;190.6;100.0
60719;BME280;46567;51.660;5.824;2023-06-22T21:12:25;129860.0;;;190.6;100.0
60719;BME280;46567;51.660;5.824;2023-06-22T21:17:25;129860.0;;;190.6;100.0
60719;BME280;46567;51.660;5.824;2023-06-22T21:22:25;129870.0;;;190.6;100.0
60719;BME280;46567;51.660;5.824;2023-06-22T21:27:25;129890.0;;;190.6;100.0
60719;BME280;46567;51.660;5.824;2023-06-22T21:32:25;129900.0;;;190.6;100.0
60719;BME280;46567;51.660;5.824;2023-06-22T21:37:25;129890.0;;;190.6;100.0
60719;BME280;46567;51.660;5.824;2023-06-22T21:42:25;129900.0;;;190.6;100.0
60719;BME280;46567;51.660;5.824;2023-06-22T21:47:25;129920.0;;;190.6;100.0
60719;BME280;46567;51.660;5.824;2023-06-22T21:52:25;129920.0;;;190.6;100.0
60719;BME280;46567;51.660;5.824;2023-06-22T21:57:25;129940.0;;;190.6;100.0
60719;BME280;46567;51.660;5.824;2023-06-22T22:02:25;129970.0;;;190.6;100.0
60719;BME280;46567;51.660;5.824;2023-06-22T22:07:25;129980.0;;;190.6;100.0
60719;BME280;46567;51.660;5.824;2023-06-22T22:12:25;130000.0;;;190.6;100.0
60719;BME280;46567;51.660;5.824;2023-06-22T22:17:25;130020.0;;;190.6;100.0
60719;BME280;46567;51.660;5.824;2023-06-22T22:22:25;130050.0;;;190.6;100.0
60719;BME280;46567;51.660;5.824;2023-06-22T22:27:25;130070.0;;;190.6;100.0
60719;BME280;46567;51.660;5.824;2023-06-22T22:32:25;130110.0;;;190.6;100.0
60719;BME280;46567;51.660;5.824;2023-06-22T22:42:25;130150.0;;;190.6;100.0
60719;BME280;46567;51.660;5.824;2023-06-22T22:47:25;130140.0;;;190.6;100.0
60719;BME280;46567;51.660;5.824;2023-06-22T22:52:25;130150.0;;;190.6;100.0
60719;BME280;46567;51.660;5.824;2023-06-22T22:57:25;130170.0;;;190.6;100.0
60719;BME280;46567;51.660;5.824;2023-06-22T23:02:25;130200.0;;;190.6;100.0
60719;BME280;46567;51.660;5.824;2023-06-22T23:07:25;130240.0;;;190.6;100.0
60719;BME280;46567;51.660;5.824;2023-06-22T23:12:25;130250.0;;;190.6;100.0
60719;BME280;46567;51.660;5.824;2023-06-22T23:17:25;130260.0;;;190.6;100.0
60719;BME280;46567;51.660;5.824;2023-06-22T23:22:25;130250.0;;;190.6;100.0
60719;BME280;46567;51.660;5.824;2023-06-22T23:27:25;130260.0;;;190.6;100.0
60719;BME280;46567;51.660;5.824;2023-06-22T23:32:25;130250.0;;;190.6;100.0
60719;BME280;46567;51.660;5.824;2023-06-22T23:37:25;130240.0;;;190.6;100.0
60719;BME280;46567;51.660;5.824;2023-06-22T23:42:25;130250.0;;;190.6;100.0
60719;BME280;46567;51.660;5.824;2023-06-22T23:47:25;130250.0;;;190.6;100.0
60719;BME280;46567;51.660;5.824;2023-06-22T23:52:25;130260.0;;;190.6;100.0
60719;BME280;46567;51.660;5.824;2023-06-22T23:57:25;130260.0;;;190.6;100.0
